sensor_id;sensor_type;location;lat;lon;timestamp;pressure;altitude;pressure_sealevel;temperature;humidity
55994;BME280;67425;52.126;20.638;2023-02-28T00:00:18;57713.63;;;-144.78;45.78
55994;BME280;67425;52.126;20.638;2023-02-28T00:02:44;57732.34;;;-144.78;44.70
55994;BME280;67425;52.126;20.638;2023-02-28T00:05:12;57721.94;;;-144.78;45.76
55994;BME280;67425;52.126;20.638;2023-02-28T00:07:38;57713.63;;;-144.78;45.76
55994;BME280;67425;52.126;20.638;2023-02-28T00:10:05;57717.78;;;-144.78;45.17
55994;BME280;67425;52.126;20.638;2023-02-28T00:12:32;57721.94;;;-144.78;46.30
55994;BME280;67425;52.126;20.638;2023-02-28T00:14:58;57738.56;;;-144.78;46.55
55994;BME280;67425;52.126;20.638;2023-02-28T00:17:23;57744.78;;;-144.78;46.91
55994;BME280;67425;52.126;20.638;2023-02-28T00:19:49;57730.25;;;-144.78;48.37
55994;BME280;67425;52.126;20.638;2023-02-28T00:22:16;57721.94;;;-144.78;47.72
55994;BME280;67425;52.126;20.638;2023-02-28T00:24:41;57751.03;;;-144.78;46.87
55994;BME280;67425;52.126;20.638;2023-02-28T00:27:07;57726.09;;;-144.78;46.93
55994;BME280;67425;52.126;20.638;2023-02-28T00:29:32;57721.94;;;-144.78;46.19
55994;BME280;67425;52.126;20.638;2023-02-28T00:31:57;57721.94;;;-144.78;47.67
55994;BME280;67425;52.126;20.638;2023-02-28T00:34:23;57738.56;;;-144.78;47.03
55994;BME280;67425;52.126;20.638;2023-02-28T00:36:48;57746.88;;;-144.78;46.97
55994;BME280;67425;52.126;20.638;2023-02-28T00:39:16;57746.88;;;-144.78;47.17
55994;BME280;67425;52.126;20.638;2023-02-28T00:41:41;57730.25;;;-144.78;46.19
55994;BME280;67425;52.126;20.638;2023-02-28T00:44:07;57715.72;;;-144.78;46.63
55994;BME280;67425;52.126;20.638;2023-02-28T00:46:32;57713.63;;;-144.78;46.47
55994;BME280;67425;52.126;20.638;2023-02-28T00:48:58;57740.63;;;-144.78;46.90
55994;BME280;67425;52.126;20.638;2023-02-28T00:51:23;57730.25;;;-144.78;46.84
55994;BME280;67425;52.126;20.638;2023-02-28T00:53:49;57763.47;;;-144.78;48.51
55994;BME280;67425;52.126;20.638;2023-02-28T00:56:14;57724.03;;;-144.78;47.53
55994;BME280;67425;52.126;20.638;2023-02-28T00:58:39;57728.19;;;-144.78;46.93
55994;BME280;67425;52.126;20.638;2023-02-28T01:01:05;57755.19;;;-144.78;47.20
55994;BME280;67425;52.126;20.638;2023-02-28T01:03:31;57769.72;;;-144.78;47.00
55994;BME280;67425;52.126;20.638;2023-02-28T01:05:56;57744.78;;;-144.78;46.91
55994;BME280;67425;52.126;20.638;2023-02-28T01:08:23;57740.63;;;-144.78;47.69
55994;BME280;67425;52.126;20.638;2023-02-28T01:10:49;57744.78;;;-144.78;47.15
55994;BME280;67425;52.126;20.638;2023-02-28T01:13:14;57769.72;;;-144.78;47.44
55994;BME280;67425;52.126;20.638;2023-02-28T01:15:43;57771.78;;;-144.78;47.29
55994;BME280;67425;52.126;20.638;2023-02-28T01:18:10;57746.88;;;-144.78;47.23
55994;BME280;67425;52.126;20.638;2023-02-28T01:20:37;57736.50;;;-144.78;46.71
55994;BME280;67425;52.126;20.638;2023-02-28T01:23:02;57755.19;;;-144.78;47.95
55994;BME280;67425;52.126;20.638;2023-02-28T01:25:28;57792.56;;;-144.78;47.90
55994;BME280;67425;52.126;20.638;2023-02-28T01:27:53;57786.34;;;-144.78;48.39
55994;BME280;67425;52.126;20.638;2023-02-28T01:30:19;57771.78;;;-144.78;47.83
55994;BME280;67425;52.126;20.638;2023-02-28T01:32:44;57790.47;;;-144.78;47.83
55994;BME280;67425;52.126;20.638;2023-02-28T01:35:09;57794.63;;;-144.78;47.46
55994;BME280;67425;52.126;20.638;2023-02-28T01:37:35;57753.09;;;-144.78;46.72
55994;BME280;67425;52.126;20.638;2023-02-28T01:40:00;57711.56;;;-144.78;46.60
55994;BME280;67425;52.126;20.638;2023-02-28T01:42:26;57759.34;;;-144.78;47.67
55994;BME280;67425;52.126;20.638;2023-02-28T01:47:45;57769.72;;;-144.78;47.38
55994;BME280;67425;52.126;20.638;2023-02-28T01:50:14;57767.63;;;-144.78;48.06
55994;BME280;67425;52.126;20.638;2023-02-28T01:52:40;57769.72;;;-144.78;48.81
55994;BME280;67425;52.126;20.638;2023-02-28T01:55:08;57809.19;;;-144.78;48.39
55994;BME280;67425;52.126;20.638;2023-02-28T01:57:40;57775.94;;;-144.78;47.69
55994;BME280;67425;52.126;20.638;2023-02-28T02:00:12;57792.56;;;-144.78;49.06
55994;BME280;67425;52.126;20.638;2023-02-28T02:02:41;57771.78;;;-144.78;48.16
55994;BME280;67425;52.126;20.638;2023-02-28T02:05:23;57767.63;;;-144.78;47.61
55994;BME280;67425;52.126;20.638;2023-02-28T02:07:52;57780.09;;;-144.78;49.34
55994;BME280;67425;52.126;20.638;2023-02-28T02:11:02;57778.03;;;-144.78;48.21
55994;BME280;67425;52.126;20.638;2023-02-28T02:16:10;57796.72;;;-144.78;49.55
55994;BME280;67425;52.126;20.638;2023-02-28T02:18:53;57778.03;;;-144.78;49.04
55994;BME280;67425;52.126;20.638;2023-02-28T02:58:27;57790.47;;;-144.78;47.74
55994;BME280;67425;52.126;20.638;2023-02-28T03:00:57;57769.72;;;-144.78;47.52
55994;BME280;67425;52.126;20.638;2023-02-28T03:03:25;57738.56;;;-144.78;47.15
55994;BME280;67425;52.126;20.638;2023-02-28T03:05:57;57744.78;;;-144.78;46.87
55994;BME280;67425;52.126;20.638;2023-02-28T03:08:24;57746.88;;;-144.78;47.75
55994;BME280;67425;52.126;20.638;2023-02-28T03:11:00;57767.63;;;-144.78;47.43
55994;BME280;67425;52.126;20.638;2023-02-28T03:22:05;57771.78;;;-144.78;47.10
55994;BME280;67425;52.126;20.638;2023-02-28T03:27:39;57767.63;;;-144.78;47.54
55994;BME280;67425;52.126;20.638;2023-02-28T03:35:22;57771.78;;;-144.78;47.24
55994;BME280;67425;52.126;20.638;2023-02-28T03:37:53;57765.56;;;-144.78;47.54
55994;BME280;67425;52.126;20.638;2023-02-28T03:40:23;57765.56;;;-144.78;46.70
55994;BME280;67425;52.126;20.638;2023-02-28T03:42:54;57778.03;;;-144.78;47.38
55994;BME280;67425;52.126;20.638;2023-02-28T03:45:25;57769.72;;;-144.78;48.00
55994;BME280;67425;52.126;20.638;2023-02-28T03:48:02;57780.09;;;-144.78;47.52
55994;BME280;67425;52.126;20.638;2023-02-28T03:50:37;57751.03;;;-144.78;47.03
55994;BME280;67425;52.126;20.638;2023-02-28T03:53:27;57753.09;;;-144.78;47.67
55994;BME280;67425;52.126;20.638;2023-02-28T03:55:59;57769.72;;;-144.78;47.63
55994;BME280;67425;52.126;20.638;2023-02-28T04:01:40;57771.78;;;-144.78;46.89
55994;BME280;67425;52.126;20.638;2023-02-28T04:04:07;57780.09;;;-144.78;48.48
55994;BME280;67425;52.126;20.638;2023-02-28T04:06:34;57807.09;;;-144.78;48.47
55994;BME280;67425;52.126;20.638;2023-02-28T04:08:59;57786.34;;;-144.78;47.60
55994;BME280;67425;52.126;20.638;2023-02-28T04:14:00;57790.47;;;-144.78;47.79
55994;BME280;67425;52.126;20.638;2023-02-28T04:16:26;57771.78;;;-144.78;47.29
55994;BME280;67425;52.126;20.638;2023-02-28T04:18:51;57755.19;;;-144.78;47.00
55994;BME280;67425;52.126;20.638;2023-02-28T04:21:17;57786.34;;;-144.78;47.09
55994;BME280;67425;52.126;20.638;2023-02-28T04:23:46;57767.63;;;-144.78;46.44
55994;BME280;67425;52.126;20.638;2023-02-28T04:26:11;57763.47;;;-144.78;47.55
55994;BME280;67425;52.126;20.638;2023-02-28T04:28:38;57757.25;;;-144.78;47.67
55994;BME280;67425;52.126;20.638;2023-02-28T04:31:04;57771.78;;;-144.78;48.67
55994;BME280;67425;52.126;20.638;2023-02-28T04:33:31;57788.41;;;-144.78;48.87
55994;BME280;67425;52.126;20.638;2023-02-28T04:36:05;57794.63;;;-144.78;48.78
55994;BME280;67425;52.126;20.638;2023-02-28T04:38:33;57784.25;;;-144.78;48.21
55994;BME280;67425;52.126;20.638;2023-02-28T04:40:59;57809.19;;;-144.78;48.53
55994;BME280;67425;52.126;20.638;2023-02-28T04:43:29;57769.72;;;-144.78;48.08
55994;BME280;67425;52.126;20.638;2023-02-28T04:45:56;57790.47;;;-144.78;48.24
55994;BME280;67425;52.126;20.638;2023-02-28T04:48:26;57769.72;;;-144.78;48.59
55994;BME280;67425;52.126;20.638;2023-02-28T04:50:52;57775.94;;;-144.78;47.31
55994;BME280;67425;52.126;20.638;2023-02-28T04:53:18;57740.63;;;-144.78;47.42
55994;BME280;67425;52.126;20.638;2023-02-28T04:55:44;57780.09;;;-144.78;47.50
55994;BME280;67425;52.126;20.638;2023-02-28T04:58:09;57792.56;;;-144.78;47.43
55994;BME280;67425;52.126;20.638;2023-02-28T05:00:35;57769.72;;;-144.78;46.86
55994;BME280;67425;52.126;20.638;2023-02-28T05:03:00;57780.09;;;-144.78;47.08
55994;BME280;67425;52.126;20.638;2023-02-28T05:05:25;57792.56;;;-144.78;47.47
55994;BME280;67425;52.126;20.638;2023-02-28T05:07:51;57794.63;;;-144.78;48.24
55994;BME280;67425;52.126;20.638;2023-02-28T05:10:16;57805.03;;;-144.78;48.79
55994;BME280;67425;52.126;20.638;2023-02-28T05:12:42;57759.34;;;-144.78;48.75
55994;BME280;67425;52.126;20.638;2023-02-28T05:15:12;57792.56;;;-144.78;47.70
55994;BME280;67425;52.126;20.638;2023-02-28T05:17:38;57796.72;;;-144.78;47.72
55994;BME280;67425;52.126;20.638;2023-02-28T05:20:03;57809.19;;;-144.78;48.38
55994;BME280;67425;52.126;20.638;2023-02-28T05:22:30;57782.19;;;-144.78;48.25
55994;BME280;67425;52.126;20.638;2023-02-28T05:24:55;57790.47;;;-144.78;48.58
55994;BME280;67425;52.126;20.638;2023-02-28T05:27:21;57794.63;;;-144.78;47.74
55994;BME280;67425;52.126;20.638;2023-02-28T05:29:46;57786.34;;;-144.78;48.26
55994;BME280;67425;52.126;20.638;2023-02-28T05:32:12;57798.78;;;-144.78;47.72
55994;BME280;67425;52.126;20.638;2023-02-28T05:34:38;57817.47;;;-144.78;48.13
55994;BME280;67425;52.126;20.638;2023-02-28T05:37:03;57788.41;;;-144.78;47.69
55994;BME280;67425;52.126;20.638;2023-02-28T05:39:29;57813.34;;;-144.78;47.64
55994;BME280;67425;52.126;20.638;2023-02-28T05:41:55;57780.09;;;-144.78;47.17
55994;BME280;67425;52.126;20.638;2023-02-28T05:44:21;57769.72;;;-144.78;47.87
55994;BME280;67425;52.126;20.638;2023-02-28T05:46:46;57788.41;;;-144.78;48.67
55994;BME280;67425;52.126;20.638;2023-02-28T05:49:11;57836.19;;;-144.78;48.62
55994;BME280;67425;52.126;20.638;2023-02-28T05:51:37;57809.19;;;-144.78;48.90
55994;BME280;67425;52.126;20.638;2023-02-28T05:54:05;57842.41;;;-144.78;48.69
55994;BME280;67425;52.126;20.638;2023-02-28T05:56:30;57796.72;;;-144.78;48.63
55994;BME280;67425;52.126;20.638;2023-02-28T05:58:56;57798.78;;;-144.78;48.38
55994;BME280;67425;52.126;20.638;2023-02-28T06:01:31;57784.25;;;-144.78;48.47
55994;BME280;67425;52.126;20.638;2023-02-28T06:04:01;57790.47;;;-144.78;48.23
55994;BME280;67425;52.126;20.638;2023-02-28T06:06:27;57802.94;;;-144.78;48.40
55994;BME280;67425;52.126;20.638;2023-02-28T06:08:52;57778.03;;;-144.78;48.51
55994;BME280;67425;52.126;20.638;2023-02-28T06:11:17;57784.25;;;-144.78;48.74
55994;BME280;67425;52.126;20.638;2023-02-28T06:13:45;57796.72;;;-144.78;48.96
55994;BME280;67425;52.126;20.638;2023-02-28T06:16:11;57778.03;;;-144.78;48.50
55994;BME280;67425;52.126;20.638;2023-02-28T06:18:36;57775.94;;;-144.78;49.38
55994;BME280;67425;52.126;20.638;2023-02-28T06:21:02;57782.19;;;-144.78;48.92
55994;BME280;67425;52.126;20.638;2023-02-28T06:23:27;57782.19;;;-144.78;49.10
55994;BME280;67425;52.126;20.638;2023-02-28T06:25:53;57771.78;;;-144.78;49.53
55994;BME280;67425;52.126;20.638;2023-02-28T06:28:18;57796.72;;;-144.78;51.48
55994;BME280;67425;52.126;20.638;2023-02-28T06:30:44;57778.03;;;-144.78;52.72
55994;BME280;67425;52.126;20.638;2023-02-28T06:33:09;57809.19;;;-144.78;53.24
55994;BME280;67425;52.126;20.638;2023-02-28T06:35:35;57794.63;;;-144.78;51.95
55994;BME280;67425;52.126;20.638;2023-02-28T06:38:00;57771.78;;;-144.78;52.05
55994;BME280;67425;52.126;20.638;2023-02-28T06:40:26;57790.47;;;-144.78;52.52
55994;BME280;67425;52.126;20.638;2023-02-28T06:42:51;57794.63;;;-144.78;51.66
55994;BME280;67425;52.126;20.638;2023-02-28T06:45:17;57761.41;;;-144.78;51.02
55994;BME280;67425;52.126;20.638;2023-02-28T06:47:42;57773.88;;;-144.78;50.77
55994;BME280;67425;52.126;20.638;2023-02-28T06:50:11;57746.88;;;-144.78;50.46
55994;BME280;67425;52.126;20.638;2023-02-28T06:52:38;57744.78;;;-144.78;49.63
55994;BME280;67425;52.126;20.638;2023-02-28T06:55:05;57751.03;;;-144.78;49.11
55994;BME280;67425;52.126;20.638;2023-02-28T06:57:32;57726.09;;;-144.78;49.50
55994;BME280;67425;52.126;20.638;2023-02-28T07:00:07;57730.25;;;-144.78;48.35
55994;BME280;67425;52.126;20.638;2023-02-28T07:02:35;57697.03;;;-144.78;47.23
55994;BME280;67425;52.126;20.638;2023-02-28T07:05:01;57692.88;;;-144.78;47.28
55994;BME280;67425;52.126;20.638;2023-02-28T07:07:26;57680.41;;;-144.78;46.52
55994;BME280;67425;52.126;20.638;2023-02-28T07:09:51;57688.72;;;-144.78;46.97
55994;BME280;67425;52.126;20.638;2023-02-28T07:12:16;57688.72;;;-144.78;47.32
55994;BME280;67425;52.126;20.638;2023-02-28T07:14:42;57676.25;;;-144.78;46.89
55994;BME280;67425;52.126;20.638;2023-02-28T07:17:09;57684.56;;;-144.78;45.79
55994;BME280;67425;52.126;20.638;2023-02-28T07:19:35;57699.09;;;-144.78;46.27
55994;BME280;67425;52.126;20.638;2023-02-28T07:22:01;57676.25;;;-144.78;45.70
55994;BME280;67425;52.126;20.638;2023-02-28T07:24:28;57659.63;;;-144.78;44.41
55994;BME280;67425;52.126;20.638;2023-02-28T07:26:54;57663.78;;;-144.78;44.40
55994;BME280;67425;52.126;20.638;2023-02-28T07:29:20;57636.78;;;-144.78;43.38
55994;BME280;67425;52.126;20.638;2023-02-28T07:31:45;57640.94;;;-144.78;44.89
55994;BME280;67425;52.126;20.638;2023-02-28T07:34:11;57636.78;;;-144.78;43.40
55994;BME280;67425;52.126;20.638;2023-02-28T07:36:37;57670.03;;;-144.78;43.61
55994;BME280;67425;52.126;20.638;2023-02-28T07:39:02;57638.88;;;-144.78;43.67
55994;BME280;67425;52.126;20.638;2023-02-28T07:41:29;57634.72;;;-144.78;42.30
55994;BME280;67425;52.126;20.638;2023-02-28T07:43:55;57628.50;;;-144.78;42.39
55994;BME280;67425;52.126;20.638;2023-02-28T07:46:22;57626.41;;;-144.78;41.95
55994;BME280;67425;52.126;20.638;2023-02-28T07:48:47;57630.56;;;-144.78;42.13
55994;BME280;67425;52.126;20.638;2023-02-28T07:51:13;57626.41;;;-144.78;42.31
55994;BME280;67425;52.126;20.638;2023-02-28T07:53:38;57636.78;;;-144.78;41.79
55994;BME280;67425;52.126;20.638;2023-02-28T07:56:04;57638.88;;;-144.78;41.65
55994;BME280;67425;52.126;20.638;2023-02-28T07:58:30;57632.66;;;-144.78;40.92
55994;BME280;67425;52.126;20.638;2023-02-28T08:00:56;57591.09;;;-144.78;40.51
55994;BME280;67425;52.126;20.638;2023-02-28T08:03:23;57580.72;;;-144.78;39.53
55994;BME280;67425;52.126;20.638;2023-02-28T08:05:49;57607.72;;;-144.78;39.79
55994;BME280;67425;52.126;20.638;2023-02-28T08:08:15;57595.25;;;-144.78;39.14
55994;BME280;67425;52.126;20.638;2023-02-28T08:10:42;57599.41;;;-144.78;38.38
55994;BME280;67425;52.126;20.638;2023-02-28T08:13:07;57576.56;;;-144.78;37.83
55994;BME280;67425;52.126;20.638;2023-02-28T08:15:32;57609.78;;;-144.78;38.65
55994;BME280;67425;52.126;20.638;2023-02-28T08:17:58;57589.03;;;-144.78;38.15
55994;BME280;67425;52.126;20.638;2023-02-28T08:20:24;57555.81;;;-144.78;36.75
55994;BME280;67425;52.126;20.638;2023-02-28T08:22:49;57576.56;;;-144.78;36.89
55994;BME280;67425;52.126;20.638;2023-02-28T08:25:15;57572.41;;;-144.78;36.78
55994;BME280;67425;52.126;20.638;2023-02-28T08:27:40;57593.19;;;-144.78;37.01
55994;BME280;67425;52.126;20.638;2023-02-28T08:30:06;57549.56;;;-144.78;35.49
55994;BME280;67425;52.126;20.638;2023-02-28T08:32:33;57543.34;;;-144.78;36.09
55994;BME280;67425;52.126;20.638;2023-02-28T08:34:58;57566.19;;;-144.78;35.47
55994;BME280;67425;52.126;20.638;2023-02-28T08:37:24;57559.97;;;-144.78;35.37
55994;BME280;67425;52.126;20.638;2023-02-28T08:39:49;57584.88;;;-144.78;36.40
55994;BME280;67425;52.126;20.638;2023-02-28T08:42:15;57578.66;;;-144.78;36.04
55994;BME280;67425;52.126;20.638;2023-02-28T08:44:40;57566.19;;;-144.78;36.21
55994;BME280;67425;52.126;20.638;2023-02-28T08:47:05;57520.50;;;-144.78;34.98
55994;BME280;67425;52.126;20.638;2023-02-28T08:49:31;57532.97;;;-144.78;35.01
55994;BME280;67425;52.126;20.638;2023-02-28T08:51:57;57537.09;;;-144.78;34.08
55994;BME280;67425;52.126;20.638;2023-02-28T08:54:23;57553.72;;;-144.78;34.90
55994;BME280;67425;52.126;20.638;2023-02-28T08:56:48;57568.25;;;-144.78;35.09
55994;BME280;67425;52.126;20.638;2023-02-28T08:59:14;57541.25;;;-144.78;34.36
55994;BME280;67425;52.126;20.638;2023-02-28T09:01:39;57520.50;;;-144.78;34.10
55994;BME280;67425;52.126;20.638;2023-02-28T09:04:06;57537.09;;;-144.78;34.09
55994;BME280;67425;52.126;20.638;2023-02-28T09:06:34;57512.19;;;-144.78;34.53
55994;BME280;67425;52.126;20.638;2023-02-28T09:08:59;57497.66;;;-144.78;33.57
55994;BME280;67425;52.126;20.638;2023-02-28T09:11:27;57530.88;;;-144.78;34.54
55994;BME280;67425;52.126;20.638;2023-02-28T09:13:52;57495.56;;;-144.78;34.39
55994;BME280;67425;52.126;20.638;2023-02-28T09:16:18;57508.03;;;-144.78;33.84
55994;BME280;67425;52.126;20.638;2023-02-28T09:18:44;57489.34;;;-144.78;33.50
55994;BME280;67425;52.126;20.638;2023-02-28T09:21:12;57491.41;;;-144.78;33.45
55994;BME280;67425;52.126;20.638;2023-02-28T09:23:40;57562.03;;;-144.78;35.08
55994;BME280;67425;52.126;20.638;2023-02-28T09:26:06;57543.34;;;-144.78;34.03
55994;BME280;67425;52.126;20.638;2023-02-28T09:28:31;57572.41;;;-144.78;35.05
55994;BME280;67425;52.126;20.638;2023-02-28T09:30:57;57547.50;;;-144.78;35.29
55994;BME280;67425;52.126;20.638;2023-02-28T09:33:24;57541.25;;;-144.78;34.67
55994;BME280;67425;52.126;20.638;2023-02-28T09:35:51;57520.50;;;-144.78;34.42
55994;BME280;67425;52.126;20.638;2023-02-28T09:38:17;57620.19;;;-144.78;37.18
55994;BME280;67425;52.126;20.638;2023-02-28T09:40:52;57595.25;;;-144.78;36.83
55994;BME280;67425;52.126;20.638;2023-02-28T09:43:22;57584.88;;;-144.78;36.44
55994;BME280;67425;52.126;20.638;2023-02-28T09:46:00;57568.25;;;-144.78;36.22
55994;BME280;67425;52.126;20.638;2023-02-28T09:48:32;57570.34;;;-144.78;36.56
55994;BME280;67425;52.126;20.638;2023-02-28T09:51:05;57580.72;;;-144.78;36.32
55994;BME280;67425;52.126;20.638;2023-02-28T09:53:37;57559.97;;;-144.78;35.95
55994;BME280;67425;52.126;20.638;2023-02-28T09:56:08;57576.56;;;-144.78;37.23
55994;BME280;67425;52.126;20.638;2023-02-28T09:58:42;57597.34;;;-144.78;36.78
55994;BME280;67425;52.126;20.638;2023-02-28T10:04:22;57599.41;;;-144.78;37.33
55994;BME280;67425;52.126;20.638;2023-02-28T10:06:51;57568.25;;;-144.78;37.39
55994;BME280;67425;52.126;20.638;2023-02-28T10:09:24;57549.56;;;-144.78;36.20
55994;BME280;67425;52.126;20.638;2023-02-28T10:11:52;57532.97;;;-144.78;35.22
55994;BME280;67425;52.126;20.638;2023-02-28T10:14:21;57574.50;;;-144.78;35.74
55994;BME280;67425;52.126;20.638;2023-02-28T10:16:50;57584.88;;;-144.78;36.44
55994;BME280;67425;52.126;20.638;2023-02-28T10:22:28;57589.03;;;-144.78;37.56
55994;BME280;67425;52.126;20.638;2023-02-28T10:24:57;57551.66;;;-144.78;36.30
55994;BME280;67425;52.126;20.638;2023-02-28T10:27:31;57589.03;;;-144.78;37.51
55994;BME280;67425;52.126;20.638;2023-02-28T10:30:01;57543.34;;;-144.78;36.62
55994;BME280;67425;52.126;20.638;2023-02-28T10:32:32;57603.56;;;-144.78;37.07
55994;BME280;67425;52.126;20.638;2023-02-28T10:35:23;57584.88;;;-144.78;37.05
55994;BME280;67425;52.126;20.638;2023-02-28T10:37:50;57532.97;;;-144.78;36.19
55994;BME280;67425;52.126;20.638;2023-02-28T10:43:05;57576.56;;;-144.78;37.06
55994;BME280;67425;52.126;20.638;2023-02-28T10:45:32;57543.34;;;-144.78;35.67
55994;BME280;67425;52.126;20.638;2023-02-28T10:48:05;57572.41;;;-144.78;36.79
55994;BME280;67425;52.126;20.638;2023-02-28T10:56:17;57549.56;;;-144.78;35.83
55994;BME280;67425;52.126;20.638;2023-02-28T11:01:58;57572.41;;;-144.78;37.09
55994;BME280;67425;52.126;20.638;2023-02-28T11:07:02;57553.72;;;-144.78;35.55
55994;BME280;67425;52.126;20.638;2023-02-28T11:09:32;57586.94;;;-144.78;36.75
55994;BME280;67425;52.126;20.638;2023-02-28T11:12:00;57543.34;;;-144.78;36.54
55994;BME280;67425;52.126;20.638;2023-02-28T11:14:30;57543.34;;;-144.78;36.37
55994;BME280;67425;52.126;20.638;2023-02-28T11:16:59;57530.88;;;-144.78;35.07
55994;BME280;67425;52.126;20.638;2023-02-28T11:19:29;57501.81;;;-144.78;34.20
55994;BME280;67425;52.126;20.638;2023-02-28T11:21:59;57503.88;;;-144.78;34.20
55994;BME280;67425;52.126;20.638;2023-02-28T11:24:33;57497.66;;;-144.78;34.35
55994;BME280;67425;52.126;20.638;2023-02-28T11:27:00;57537.09;;;-144.78;34.25
55994;BME280;67425;52.126;20.638;2023-02-28T11:29:28;57499.72;;;-144.78;34.20
55994;BME280;67425;52.126;20.638;2023-02-28T11:32:13;57553.72;;;-144.78;35.87
55994;BME280;67425;52.126;20.638;2023-02-28T11:34:41;57528.81;;;-144.78;34.50
55994;BME280;67425;52.126;20.638;2023-02-28T11:37:13;57564.09;;;-144.78;35.70
55994;BME280;67425;52.126;20.638;2023-02-28T11:39:40;57551.66;;;-144.78;34.99
55994;BME280;67425;52.126;20.638;2023-02-28T11:48:01;57470.66;;;-144.78;33.92
55994;BME280;67425;52.126;20.638;2023-02-28T11:56:23;57516.34;;;-144.78;34.16
55994;BME280;67425;52.126;20.638;2023-02-28T12:07:01;57572.41;;;-144.78;35.17
55994;BME280;67425;52.126;20.638;2023-02-28T12:17:50;57530.88;;;-144.78;34.00
55994;BME280;67425;52.126;20.638;2023-02-28T12:26:08;57478.97;;;-144.78;33.22
55994;BME280;67425;52.126;20.638;2023-02-28T12:28:58;57510.13;;;-144.78;33.61
55994;BME280;67425;52.126;20.638;2023-02-28T12:31:31;57474.81;;;-144.78;33.23
55994;BME280;67425;52.126;20.638;2023-02-28T12:34:10;57501.81;;;-144.78;34.46
55994;BME280;67425;52.126;20.638;2023-02-28T12:36:37;57493.50;;;-144.78;34.58
55994;BME280;67425;52.126;20.638;2023-02-28T12:39:17;57470.66;;;-144.78;33.28
55994;BME280;67425;52.126;20.638;2023-02-28T12:41:56;57539.19;;;-144.78;33.89
55994;BME280;67425;52.126;20.638;2023-02-28T12:46:55;57485.19;;;-144.78;33.73
55994;BME280;67425;52.126;20.638;2023-02-28T12:49:31;57530.88;;;-144.78;34.43
55994;BME280;67425;52.126;20.638;2023-02-28T12:52:00;57530.88;;;-144.78;34.91
55994;BME280;67425;52.126;20.638;2023-02-28T12:54:38;57501.81;;;-144.78;34.66
55994;BME280;67425;52.126;20.638;2023-02-28T12:57:31;57520.50;;;-144.78;34.77
55994;BME280;67425;52.126;20.638;2023-02-28T13:00:10;57489.34;;;-144.78;34.56
55994;BME280;67425;52.126;20.638;2023-02-28T13:08:28;57530.88;;;-144.78;35.14
55994;BME280;67425;52.126;20.638;2023-02-28T13:10:58;57539.19;;;-144.78;35.69
55994;BME280;67425;52.126;20.638;2023-02-28T13:13:26;57493.50;;;-144.78;33.86
55994;BME280;67425;52.126;20.638;2023-02-28T13:16:07;57470.66;;;-144.78;33.27
55994;BME280;67425;52.126;20.638;2023-02-28T13:18:43;57497.66;;;-144.78;33.64
55994;BME280;67425;52.126;20.638;2023-02-28T13:21:22;57462.34;;;-144.78;33.66
55994;BME280;67425;52.126;20.638;2023-02-28T13:26:21;57545.41;;;-144.78;34.80
55994;BME280;67425;52.126;20.638;2023-02-28T13:29:00;57501.81;;;-144.78;34.21
55994;BME280;67425;52.126;20.638;2023-02-28T13:31:25;57464.41;;;-144.78;33.40
55994;BME280;67425;52.126;20.638;2023-02-28T13:36:23;57520.50;;;-144.78;34.86
55994;BME280;67425;52.126;20.638;2023-02-28T13:38:57;57489.34;;;-144.78;34.46
55994;BME280;67425;52.126;20.638;2023-02-28T13:44:16;57460.28;;;-144.78;33.67
55994;BME280;67425;52.126;20.638;2023-02-28T13:51:52;57510.13;;;-144.78;34.04
55994;BME280;67425;52.126;20.638;2023-02-28T14:05:30;57495.56;;;-144.78;34.26
55994;BME280;67425;52.126;20.638;2023-02-28T14:08:01;57485.19;;;-144.78;33.95
55994;BME280;67425;52.126;20.638;2023-02-28T14:10:32;57468.56;;;-144.78;34.02
55994;BME280;67425;52.126;20.638;2023-02-28T14:13:01;57447.81;;;-144.78;33.45
55994;BME280;67425;52.126;20.638;2023-02-28T14:18:00;57472.72;;;-144.78;33.58
55994;BME280;67425;52.126;20.638;2023-02-28T14:20:29;57472.72;;;-144.78;33.38
55994;BME280;67425;52.126;20.638;2023-02-28T14:25:52;57451.97;;;-144.78;33.20
55994;BME280;67425;52.126;20.638;2023-02-28T14:28:46;57493.50;;;-144.78;33.91
55994;BME280;67425;52.126;20.638;2023-02-28T14:31:15;57489.34;;;-144.78;34.41
55994;BME280;67425;52.126;20.638;2023-02-28T14:36:39;57462.34;;;-144.78;33.66
55994;BME280;67425;52.126;20.638;2023-02-28T14:39:06;57447.81;;;-144.78;33.44
55994;BME280;67425;52.126;20.638;2023-02-28T14:44:01;57468.56;;;-144.78;33.23
55994;BME280;67425;52.126;20.638;2023-02-28T14:46:38;57433.28;;;-144.78;33.08
55994;BME280;67425;52.126;20.638;2023-02-28T14:49:05;57447.81;;;-144.78;33.55
55994;BME280;67425;52.126;20.638;2023-02-28T14:51:32;57454.03;;;-144.78;33.90
55994;BME280;67425;52.126;20.638;2023-02-28T14:54:01;57460.28;;;-144.78;34.28
55994;BME280;67425;52.126;20.638;2023-02-28T14:56:33;57441.59;;;-144.78;34.16
55994;BME280;67425;52.126;20.638;2023-02-28T14:58:59;57474.81;;;-144.78;34.46
55994;BME280;67425;52.126;20.638;2023-02-28T15:01:25;57451.97;;;-144.78;33.45
55994;BME280;67425;52.126;20.638;2023-02-28T15:04:00;57443.66;;;-144.78;32.81
55994;BME280;67425;52.126;20.638;2023-02-28T15:06:26;57427.03;;;-144.78;33.42
55994;BME280;67425;52.126;20.638;2023-02-28T15:09:21;57427.03;;;-144.78;32.91
55994;BME280;67425;52.126;20.638;2023-02-28T15:11:48;57449.88;;;-144.78;33.91
55994;BME280;67425;52.126;20.638;2023-02-28T15:14:18;57449.88;;;-144.78;33.63
55994;BME280;67425;52.126;20.638;2023-02-28T15:16:46;57441.59;;;-144.78;33.73
55994;BME280;67425;52.126;20.638;2023-02-28T15:19:21;57435.34;;;-144.78;33.22